Time;durP1;ratioP1;P1;durP2;ratioP2;P2;SDS_P1;SDS_P2;PMS_P1;PMS_P2;Temp;Humidity;BMP_temperature;BMP_pressure;BME280_temperature;BME280_humidity;BME280_pressure;Samples;Min_cycle;Max_cycle;Signal;HPM_P1;HPM_P2
2023/02/24 00:01:17;;;;;;;41.30;19.63;;;;;;;6.43;100.00;100176.66;5024557;28;20214;-72
2023/02/24 00:03:44;;;;;;;35.37;18.70;;;;;;;6.41;100.00;100173.25;5021290;28;20202;-72
2023/02/24 00:06:11;;;;;;;33.20;16.37;;;;;;;6.40;100.00;100176.72;5029947;28;20212;-72
2023/02/24 00:08:38;;;;;;;32.63;16.63;;;;;;;6.39;100.00;100175.00;5024803;28;20632;-72
2023/02/24 00:11:12;;;;;;;35.07;16.43;;;;;;;6.35;100.00;100170.75;5016584;28;20220;-72
2023/02/24 00:13:39;;;;;;;35.43;15.40;;;;;;;6.32;100.00;100169.97;5014320;28;20252;-72
2023/02/24 00:16:06;;;;;;;31.67;14.77;;;;;;;6.29;100.00;100164.81;5023296;28;20695;-72
2023/02/24 00:18:33;;;;;;;31.80;16.07;;;;;;;6.25;100.00;100170.03;5010658;28;20190;-72
2023/02/24 00:21:09;;;;;;;30.73;15.00;;;;;;;6.25;100.00;100169.19;5001210;28;20703;-72
2023/02/24 00:23:37;;;;;;;29.83;14.50;;;;;;;6.23;100.00;100165.78;5026124;28;20548;-72
2023/02/24 00:26:05;;;;;;;27.47;14.30;;;;;;;6.22;100.00;100166.66;5025613;28;20199;-71
2023/02/24 00:28:33;;;;;;;25.57;12.97;;;;;;;6.19;100.00;100157.22;5018473;28;20217;-71
2023/02/24 00:31:04;;;;;;;28.27;13.60;;;;;;;6.18;100.00;100159.81;5031877;28;20345;-72
2023/02/24 00:33:31;;;;;;;25.20;12.93;;;;;;;6.15;100.00;100157.25;5024182;28;20208;-72
2023/02/24 00:36:04;;;;;;;26.90;13.47;;;;;;;6.12;100.00;100150.41;5018939;28;20279;-72
2023/02/24 00:38:34;;;;;;;24.97;12.87;;;;;;;6.05;100.00;100154.81;5021549;28;20440;-72
2023/02/24 00:41:02;;;;;;;24.93;11.40;;;;;;;6.01;100.00;100152.28;5020177;28;20228;-71
2023/02/24 00:43:28;;;;;;;21.83;11.40;;;;;;;5.99;100.00;100159.22;4997881;28;20202;-72
2023/02/24 00:45:56;;;;;;;23.83;11.70;;;;;;;5.94;100.00;100159.25;5004523;28;20214;-73
2023/02/24 00:48:28;;;;;;;23.40;11.67;;;;;;;5.92;100.00;100153.25;5002898;28;20229;-72
2023/02/24 00:50:55;;;;;;;24.67;11.47;;;;;;;5.88;100.00;100154.19;5024996;28;20471;-72
2023/02/24 00:53:21;;;;;;;17.80;10.03;;;;;;;5.86;100.00;100148.19;5007950;28;20199;-72
2023/02/24 00:55:48;;;;;;;20.37;10.87;;;;;;;5.82;100.00;100149.97;5027583;28;20542;-72
2023/02/24 00:58:14;;;;;;;20.53;10.53;;;;;;;5.79;100.00;100149.16;5022870;28;20282;-72
2023/02/24 01:00:42;;;;;;;27.17;11.10;;;;;;;5.79;100.00;100151.72;5009097;28;20210;-71
2023/02/24 01:03:10;;;;;;;20.20;9.90;;;;;;;5.74;100.00;100154.38;5023535;28;20264;-72
2023/02/24 01:05:36;;;;;;;23.13;10.50;;;;;;;5.74;100.00;100149.19;5003602;28;20621;-71
2023/02/24 01:08:05;;;;;;;21.63;11.33;;;;;;;5.72;100.00;100145.78;5008676;28;20219;-72
2023/02/24 01:10:33;;;;;;;23.87;11.43;;;;;;;5.70;100.00;100139.78;5002914;28;20703;-72
2023/02/24 01:13:01;;;;;;;23.83;11.37;;;;;;;5.68;100.00;100142.38;5022375;28;20197;-74
2023/02/24 01:15:28;;;;;;;20.63;10.40;;;;;;;5.66;100.00;100144.16;5006920;28;20189;-73
2023/02/24 01:17:55;;;;;;;21.70;10.10;;;;;;;5.64;100.00;100135.53;5008670;28;20279;-71
2023/02/24 01:20:23;;;;;;;22.30;10.60;;;;;;;5.62;100.00;100137.28;5019213;28;20220;-71
2023/02/24 01:22:52;;;;;;;20.40;10.20;;;;;;;5.60;100.00;100135.59;5005282;28;20192;-71
2023/02/24 01:25:20;;;;;;;25.53;11.30;;;;;;;5.57;100.00;100136.47;5005715;28;20303;-72
2023/02/24 01:27:46;;;;;;;31.30;11.73;;;;;;;5.54;100.00;100130.50;5022499;28;20734;-72
2023/02/24 01:30:14;;;;;;;31.80;12.90;;;;;;;5.53;100.00;100131.38;5011715;28;20586;-71
2023/02/24 01:32:42;;;;;;;26.60;11.13;;;;;;;5.49;100.00;100136.59;5008142;28;20204;-72
2023/02/24 01:35:10;;;;;;;25.13;11.60;;;;;;;5.47;100.00;100128.00;5006329;28;20196;-72
2023/02/24 01:37:39;;;;;;;25.33;11.97;;;;;;;5.44;100.00;100120.28;5003714;28;20197;-71
2023/02/24 01:40:17;;;;;;;26.53;13.07;;;;;;;5.40;100.00;100120.34;5006060;28;20732;-72
2023/02/24 01:42:46;;;;;;;26.77;11.23;;;;;;;5.38;100.00;100120.38;5009341;28;20206;-72
2023/02/24 01:45:20;;;;;;;30.10;11.07;;;;;;;5.37;100.00;100121.25;5009928;28;20216;-73
2023/02/24 01:47:48;;;;;;;24.10;10.00;;;;;;;5.34;100.00;100123.84;5003980;28;20208;-71
2023/02/24 01:50:16;;;;;;;26.23;11.60;;;;;;;5.34;100.00;100115.25;5019850;28;20255;-71
2023/02/24 01:52:48;;;;;;;25.03;9.70;;;;;;;5.31;100.00;100116.13;5009629;28;20196;-72
2023/02/24 01:55:20;;;;;;;25.67;11.10;;;;;;;5.29;100.00;100112.72;5005308;28;20196;-71
2023/02/24 01:57:50;;;;;;;28.33;10.53;;;;;;;5.29;100.00;100107.56;5021297;28;20230;-72
2023/02/24 02:00:31;;;;;;;29.70;10.70;;;;;;;5.26;100.00;100107.59;5013650;28;20223;-72
2023/02/24 02:03:02;;;;;;;27.60;10.40;;;;;;;5.25;100.00;100108.47;5019022;28;20812;-71
2023/02/24 02:05:29;;;;;;;21.20;10.07;;;;;;;5.23;100.00;100103.31;5003307;28;20197;-72
2023/02/24 02:07:57;;;;;;;28.17;9.93;;;;;;;5.24;100.00;100102.47;4999251;28;20617;-72
2023/02/24 02:10:25;;;;;;;26.07;10.23;;;;;;;5.23;100.00;100102.47;5002107;28;20220;-72
2023/02/24 02:12:52;;;;;;;22.70;9.93;;;;;;;5.22;100.00;100100.75;5020652;28;20719;-71
2023/02/24 02:15:19;;;;;;;28.37;10.43;;;;;;;5.22;100.00;100095.56;5004107;28;20661;-72
2023/02/24 02:17:56;;;;;;;28.60;11.30;;;;;;;5.21;100.00;100094.72;5020449;28;20235;-71
2023/02/24 02:20:54;;;;;;;30.10;10.43;;;;;;;5.19;100.00;100093.03;5020413;28;20221;-71
2023/02/24 02:23:47;;;;;;;20.80;10.60;;;;;;;5.19;100.00;100091.31;5022343;28;20709;-72
2023/02/24 02:26:40;;;;;;;28.60;11.50;;;;;;;5.19;100.00;100085.28;5021246;28;20716;-72
2023/02/24 02:29:24;;;;;;;28.13;10.87;;;;;;;5.18;100.00;100087.00;5003113;28;20615;-72
2023/02/24 02:32:10;;;;;;;29.13;10.57;;;;;;;5.18;100.00;100083.56;5023852;28;20226;-72
2023/02/24 02:34:49;;;;;;;27.30;11.10;;;;;;;5.16;100.00;100078.44;5020311;28;20212;-72
2023/02/24 02:37:23;;;;;;;22.40;9.70;;;;;;;5.15;100.00;100075.84;5023051;28;20554;-71
2023/02/24 02:39:57;;;;;;;22.77;10.50;;;;;;;5.15;100.00;100076.69;5000242;28;20215;-72
2023/02/24 02:42:28;;;;;;;26.17;10.77;;;;;;;5.15;100.00;100070.69;5004830;28;20287;-71
2023/02/24 02:45:04;;;;;;;22.83;10.17;;;;;;;5.13;100.00;100071.53;5009370;28;20249;-72
2023/02/24 02:47:39;;;;;;;29.13;10.57;;;;;;;5.12;100.00;100062.09;5008409;28;20298;-73
2023/02/24 02:50:17;;;;;;;26.10;10.70;;;;;;;5.09;100.00;100064.72;5007183;28;20227;-71
2023/02/24 02:52:49;;;;;;;25.00;10.33;;;;;;;5.08;100.00;100063.03;5016217;28;20200;-72
2023/02/24 02:55:22;;;;;;;27.07;10.27;;;;;;;5.09;100.00;100063.88;5006059;28;20208;-72
2023/02/24 02:57:53;;;;;;;29.23;11.17;;;;;;;5.08;100.00;100065.63;5023226;28;20668;-72
2023/02/24 03:00:23;;;;;;;29.70;10.60;;;;;;;5.07;100.00;100061.31;5009265;28;20259;-71
2023/02/24 03:02:54;;;;;;;22.30;10.30;;;;;;;5.07;100.00;100056.13;5002036;28;20204;-71
2023/02/24 03:05:29;;;;;;;25.87;10.53;;;;;;;5.06;100.00;100061.31;5013066;28;20196;-71
2023/02/24 03:08:00;;;;;;;23.07;10.43;;;;;;;5.06;100.00;100048.41;5006933;28;20212;-72
2023/02/24 03:10:28;;;;;;;23.83;11.27;;;;;;;5.03;100.00;100049.31;5003419;28;20226;-72
2023/02/24 03:12:57;;;;;;;24.83;10.47;;;;;;;5.03;100.00;100046.72;5018269;28;20672;-71
2023/02/24 03:15:27;;;;;;;25.57;10.90;;;;;;;5.02;100.00;100042.41;5020442;28;20685;-72
2023/02/24 03:18:01;;;;;;;26.23;10.70;;;;;;;5.03;100.00;100035.50;5024324;28;20243;-71
2023/02/24 03:20:35;;;;;;;24.23;10.63;;;;;;;5.00;100.00;100036.41;5010411;28;20212;-71
2023/02/24 03:23:07;;;;;;;21.77;9.70;;;;;;;4.98;100.00;100038.19;5005946;28;20626;-73
2023/02/24 03:25:43;;;;;;;28.73;10.60;;;;;;;4.96;100.00;100033.88;5007402;28;20262;-72
2023/02/24 03:28:16;;;;;;;22.07;9.43;;;;;;;4.96;100.00;100039.94;5021685;28;20691;-72
2023/02/24 03:30:53;;;;;;;22.87;9.57;;;;;;;4.96;100.00;100034.75;5011305;28;20348;-71
2023/02/24 03:33:24;;;;;;;23.30;9.13;;;;;;;4.96;100.00;100032.19;5003162;28;20203;-72
2023/02/24 03:35:51;;;;;;;22.93;9.20;;;;;;;4.96;100.00;100033.88;5006478;28;20282;-72
2023/02/24 03:38:22;;;;;;;24.13;8.90;;;;;;;4.95;100.00;100030.44;5008516;28;20192;-71
2023/02/24 03:40:50;;;;;;;23.43;9.20;;;;;;;4.97;100.00;100027.84;5013394;28;20282;-71
2023/02/24 03:43:25;;;;;;;22.00;9.70;;;;;;;4.96;100.00;100028.72;5010186;28;20200;-71
2023/02/24 03:45:57;;;;;;;22.20;9.07;;;;;;;4.94;100.00;100023.56;5008421;28;20295;-72
2023/02/24 03:48:27;;;;;;;19.63;8.60;;;;;;;4.92;100.00;100026.19;5011346;28;20211;-71
2023/02/24 03:50:58;;;;;;;27.00;10.13;;;;;;;4.91;100.00;100031.38;5004037;28;20582;-72
2023/02/24 03:53:47;;;;;;;24.70;9.50;;;;;;;4.90;100.00;100035.66;5008886;28;20195;-71
2023/02/24 03:56:28;;;;;;;20.23;8.57;;;;;;;4.90;100.00;100033.09;5028079;28;20206;-71
2023/02/24 03:59:13;;;;;;;23.10;9.00;;;;;;;4.89;100.00;100021.06;5004504;28;20572;-72
2023/02/24 04:01:50;;;;;;;22.40;8.03;;;;;;;4.84;100.00;100027.16;5009401;28;20219;-71
2023/02/24 04:04:30;;;;;;;17.47;7.77;;;;;;;4.82;100.00;100029.75;5001516;28;20201;-71
2023/02/24 04:07:14;;;;;;;14.93;6.87;;;;;;;4.81;100.00;100024.59;5011944;28;20189;-71
2023/02/24 04:09:49;;;;;;;14.57;6.23;;;;;;;4.74;100.00;100009.16;5003378;28;20295;-72
2023/02/24 04:12:19;;;;;;;17.77;7.20;;;;;;;4.72;100.00;100012.66;5002597;28;20718;-71
2023/02/24 04:14:52;;;;;;;17.70;6.70;;;;;;;4.68;100.00;100013.56;5005000;28;20199;-71
2023/02/24 04:17:22;;;;;;;17.70;6.40;;;;;;;4.65;100.00;100008.44;5003505;28;20213;-71
2023/02/24 04:19:54;;;;;;;18.87;6.30;;;;;;;4.63;100.00;100013.63;5027740;28;20650;-71
2023/02/24 04:22:24;;;;;;;21.30;5.93;;;;;;;4.50;100.00;100014.63;5004810;28;20192;-71
2023/02/24 04:24:54;;;;;;;16.80;5.93;;;;;;;4.42;100.00;100014.72;5026041;28;20188;-72
2023/02/24 04:27:21;;;;;;;15.50;5.60;;;;;;;4.37;100.00;100016.47;5008505;28;20231;-72
2023/02/24 04:29:52;;;;;;;9.47;4.33;;;;;;;4.31;100.00;100014.81;5007885;28;20211;-71
2023/02/24 04:32:23;;;;;;;11.03;4.40;;;;;;;4.20;100.00;100018.38;5008041;28;20200;-72
2023/02/24 04:34:50;;;;;;;8.60;3.50;;;;;;;4.11;100.00;100014.16;5022673;28;20224;-71
2023/02/24 04:37:21;;;;;;;7.73;3.20;;;;;;;4.03;100.00;100024.56;5000678;28;20239;-71
2023/02/24 04:39:50;;;;;;;5.63;2.63;;;;;;;3.91;100.00;100014.34;5021846;28;20592;-71
2023/02/24 04:42:25;;;;;;;6.50;2.27;;;;;;;3.84;100.00;100020.44;5000564;28;20320;-72
2023/02/24 04:44:52;;;;;;;7.23;2.57;;;;;;;3.78;100.00;100017.03;5023635;28;20615;-71
2023/02/24 04:47:19;;;;;;;7.00;2.03;;;;;;;3.67;100.00;100015.38;5025972;28;20448;-71
2023/02/24 04:49:46;;;;;;;7.80;2.27;;;;;;;3.59;100.00;100018.03;5024520;28;20218;-71
2023/02/24 04:52:14;;;;;;;6.13;1.80;;;;;;;3.53;100.00;100016.34;5029884;28;20204;-71
2023/02/24 04:54:40;;;;;;;4.67;1.73;;;;;;;3.44;100.00;100018.13;5018946;28;20302;-71
2023/02/24 04:57:09;;;;;;;5.57;1.97;;;;;;;3.44;100.00;100010.41;5022714;28;20778;-71
2023/02/24 04:59:36;;;;;;;5.47;2.10;;;;;;;3.37;100.00;100022.47;5025873;28;20192;-73
2023/02/24 05:02:04;;;;;;;5.87;2.10;;;;;;;3.34;100.00;100017.31;5019149;28;20236;-71
2023/02/24 05:04:34;;;;;;;7.83;1.80;;;;;;;3.28;100.00;100015.66;5023998;28;20201;-71
2023/02/24 05:07:01;;;;;;;6.00;2.17;;;;;;;3.19;100.00;100011.41;5024097;28;20207;-71
2023/02/24 05:09:29;;;;;;;9.27;2.50;;;;;;;3.17;100.00;100007.13;5006089;28;20303;-71
2023/02/24 05:11:57;;;;;;;4.63;1.70;;;;;;;3.12;100.00;100014.03;4999592;28;20219;-71
2023/02/24 05:14:25;;;;;;;5.20;2.30;;;;;;;3.06;100.00;100007.19;5000573;28;20632;-71
2023/02/24 05:16:51;;;;;;;8.10;2.70;;;;;;;3.04;100.00;100001.19;5022996;28;20212;-72
2023/02/24 05:22:05;;;;;;;8.33;2.60;;;;;;;2.99;100.00;100003.78;5022533;28;20200;-71
2023/02/24 05:24:32;;;;;;;7.90;2.60;;;;;;;2.98;100.00;100002.06;5023489;28;20207;-71
2023/02/24 05:27:00;;;;;;;5.10;2.33;;;;;;;2.94;100.00;100004.69;5026508;28;20207;-72
2023/02/24 05:29:29;;;;;;;10.17;2.97;;;;;;;2.94;100.00;100000.38;5020660;28;20222;-71
2023/02/24 05:31:58;;;;;;;10.33;3.03;;;;;;;2.92;100.00;100008.97;5023119;28;20472;-71
2023/02/24 05:34:25;;;;;;;14.43;3.17;;;;;;;2.93;100.00;100003.81;5021081;28;20533;-71
2023/02/24 05:36:52;;;;;;;6.77;2.50;;;;;;;2.90;100.00;99997.81;5010297;28;20618;-72
2023/02/24 05:39:19;;;;;;;7.47;3.03;;;;;;;2.92;100.00;99996.97;5025393;28;20197;-71
2023/02/24 05:41:47;;;;;;;12.47;2.77;;;;;;;2.87;100.00;100005.56;5019249;28;20235;-72
2023/02/24 05:44:16;;;;;;;9.93;3.17;;;;;;;2.83;100.00;99992.72;5019335;28;20194;-71
2023/02/24 05:46:47;;;;;;;16.47;3.33;;;;;;;2.76;100.00;100003.91;5019268;28;20218;-72
2023/02/24 05:49:21;;;;;;;9.00;3.00;;;;;;;2.76;100.00;100003.03;5021069;28;20219;-71
2023/02/24 05:51:54;;;;;;;10.10;3.23;;;;;;;2.67;100.00;100005.66;5023393;28;20212;-73
2023/02/24 05:54:22;;;;;;;13.20;2.53;;;;;;;2.65;100.00;100005.66;5019855;28;20193;-72
2023/02/24 05:56:49;;;;;;;11.50;2.30;;;;;;;2.57;100.00;100002.22;5018501;28;20251;-71
2023/02/24 05:59:17;;;;;;;10.60;2.30;;;;;;;2.51;100.00;100018.56;5025237;28;20250;-71
2023/02/24 06:01:45;;;;;;;7.53;2.47;;;;;;;2.49;100.00;100015.13;5014801;28;20747;-71
2023/02/24 06:04:19;;;;;;;5.50;1.60;;;;;;;2.41;100.00;100020.31;5018670;28;20251;-71
2023/02/24 06:15:16;;;;;;;4.50;1.30;;;;;;;2.27;100.00;100022.91;5020717;28;20261;-71
2023/02/24 06:17:44;;;;;;;9.67;1.47;;;;;;;2.21;100.00;100012.63;5021802;28;20200;-73
2023/02/24 06:21:07;;;;;;;4.07;1.33;;;;;;;2.16;100.00;100016.91;4996254;28;20216;-72
2023/02/24 06:23:33;;;;;;;7.37;1.50;;;;;;;2.08;100.00;100022.06;5024607;28;20195;-71
2023/02/24 06:26:02;;;;;;;12.13;1.93;;;;;;;2.03;100.00;100018.66;5017733;28;20653;-71
2023/02/24 06:28:29;;;;;;;6.47;1.20;;;;;;;1.96;100.00;100013.53;5006486;28;20207;-71
2023/02/24 06:30:56;;;;;;;3.40;1.20;;;;;;;1.91;100.00;100013.50;5024518;28;20231;-71
2023/02/24 06:33:25;;;;;;;6.20;1.40;;;;;;;1.88;100.00;100016.09;5007474;28;20207;-71
2023/02/24 06:35:52;;;;;;;14.63;1.57;;;;;;;1.84;100.00;100014.38;5026683;28;20225;-71
2023/02/24 06:38:18;;;;;;;2.43;0.90;;;;;;;1.83;100.00;100007.50;5018609;28;20230;-71
2023/02/24 06:40:46;;;;;;;3.57;0.90;;;;;;;1.83;100.00;100007.50;5028430;28;20727;-71
2023/02/24 06:43:12;;;;;;;6.37;1.57;;;;;;;1.82;100.00;99996.38;5023436;28;20227;-71
2023/02/24 06:49:29;;;;;;;6.67;1.33;;;;;;;1.76;100.00;100008.38;5012318;28;20258;-72
2023/02/24 06:51:56;;;;;;;3.53;0.97;;;;;;;1.75;100.00;99999.81;5011689;28;20235;-72
2023/02/24 06:54:24;;;;;;;4.00;1.37;;;;;;;1.72;100.00;100007.53;5005378;28;20203;-72
2023/02/24 06:56:51;;;;;;;7.53;1.27;;;;;;;1.74;100.00;100000.66;5012331;28;20200;-72
2023/02/24 06:59:20;;;;;;;4.73;1.60;;;;;;;1.76;100.00;99988.69;5032992;28;20202;-72
2023/02/24 07:01:47;;;;;;;3.37;1.30;;;;;;;1.78;100.00;99997.25;5019456;28;20684;-72
2023/02/24 07:04:17;;;;;;;5.50;1.00;;;;;;;1.84;100.00;99996.38;5018600;28;20196;-72
2023/02/24 07:06:49;;;;;;;7.80;1.30;;;;;;;1.85;100.00;99995.53;5030633;28;20210;-72
2023/02/24 07:09:17;;;;;;;5.00;1.27;;;;;;;1.87;100.00;99988.69;5029298;28;20286;-71
2023/02/24 07:11:50;;;;;;;3.70;0.93;;;;;;;1.90;100.00;99988.69;5029508;28;20212;-72
2023/02/24 07:14:18;;;;;;;2.53;0.97;;;;;;;1.89;100.00;99982.66;5027432;28;20208;-71
2023/02/24 07:16:44;;;;;;;3.80;1.23;;;;;;;1.93;100.00;99980.94;5027238;28;20200;-71
2023/02/24 07:19:13;;;;;;;3.50;1.10;;;;;;;1.96;100.00;99978.38;5011357;28;20657;-72
2023/02/24 07:21:42;;;;;;;2.77;1.00;;;;;;;1.97;100.00;99982.69;5024598;28;20216;-72
2023/02/24 07:24:12;;;;;;;2.63;1.03;;;;;;;2.00;100.00;99982.66;5028217;28;20832;-72
2023/02/24 07:26:40;;;;;;;3.97;1.37;;;;;;;2.04;100.00;99971.53;5009112;28;20211;-72
2023/02/24 07:29:07;;;;;;;3.33;1.30;;;;;;;2.06;100.00;99982.66;5035470;28;20296;-72
2023/02/24 07:31:35;;;;;;;5.03;1.03;;;;;;;2.11;100.00;99974.06;5024127;28;20255;-72
2023/02/24 07:34:03;;;;;;;3.97;1.37;;;;;;;2.14;100.00;99962.06;5011691;28;20197;-72
2023/02/24 07:36:37;;;;;;;6.40;1.10;;;;;;;2.18;100.00;99963.78;5028232;28;20196;-72
2023/02/24 07:39:06;;;;;;;5.00;1.10;;;;;;;2.22;100.00;99962.91;5031798;28;20192;-72
2023/02/24 07:41:35;;;;;;;4.40;1.37;;;;;;;2.25;100.00;99968.03;5030135;28;20219;-72
2023/02/24 07:44:02;;;;;;;7.40;1.03;;;;;;;2.34;100.00;99963.72;5030018;28;20204;-72
2023/02/24 07:46:29;;;;;;;6.37;1.20;;;;;;;2.43;100.00;99958.56;5033814;28;20637;-72
2023/02/24 07:48:58;;;;;;;6.33;1.37;;;;;;;2.47;100.00;99950.81;5012531;28;20203;-72
2023/02/24 07:51:25;;;;;;;9.07;1.50;;;;;;;2.49;100.00;99955.09;5036765;28;20244;-71
2023/02/24 07:53:55;;;;;;;3.70;0.80;;;;;;;2.60;100.00;99950.75;5032537;28;20219;-72
2023/02/24 07:56:25;;;;;;;2.00;1.00;;;;;;;2.66;100.00;99940.44;5027639;28;20197;-72
2023/02/24 07:58:58;;;;;;;7.03;1.30;;;;;;;2.69;100.00;99937.88;5031753;28;20287;-72
2023/02/24 08:01:26;;;;;;;3.07;1.10;;;;;;;2.76;100.00;99930.94;5026158;28;20253;-72
2023/02/24 08:03:55;;;;;;;5.63;1.20;;;;;;;2.73;100.00;99933.56;5030395;28;20212;-72
2023/02/24 08:06:26;;;;;;;2.33;1.27;;;;;;;2.73;100.00;99925.84;5024436;28;20196;-72
2023/02/24 08:09:15;;;;;;;3.40;1.00;;;;;;;2.80;100.00;99920.63;5021399;28;20210;-72
2023/02/24 08:11:44;;;;;;;14.77;7.10;;;;;;;2.80;100.00;99922.34;5009300;28;20269;-71
2023/02/24 08:14:13;;;;;;;7.43;1.90;;;;;;;2.87;100.00;99918.00;5013693;28;20200;-70
2023/02/24 08:16:40;;;;;;;3.50;0.70;;;;;;;2.82;100.00;99911.16;5030169;28;20553;-72
2023/02/24 08:19:11;;;;;;;4.37;0.70;;;;;;;2.87;100.00;99903.44;5023344;28;20216;-72
2023/02/24 08:21:40;;;;;;;3.17;0.93;;;;;;;2.92;100.00;99896.53;5033190;28;20244;-72
2023/02/24 08:24:08;;;;;;;5.77;1.10;;;;;;;2.89;100.00;99895.69;5026641;28;20197;-72
2023/02/24 08:26:43;;;;;;;2.87;1.50;;;;;;;2.81;100.00;99894.03;5028029;28;20288;-72
2023/02/24 08:29:10;;;;;;;7.57;1.73;;;;;;;2.82;100.00;99889.72;5032484;28;20195;-72
2023/02/24 08:31:38;;;;;;;8.03;1.90;;;;;;;2.71;100.00;99883.78;5029624;28;20289;-71
2023/02/24 08:34:04;;;;;;;4.07;1.50;;;;;;;2.70;100.00;99887.22;5029448;28;20751;-72
2023/02/24 08:36:31;;;;;;;2.73;1.00;;;;;;;2.75;100.00;99883.75;5034058;28;20217;-72
2023/02/24 08:38:58;;;;;;;9.33;1.07;;;;;;;2.83;100.00;99883.69;5031182;28;20208;-72
2023/02/24 08:41:43;;;;;;;4.53;1.00;;;;;;;2.91;100.00;99879.34;5010227;28;20475;-72
2023/02/24 08:44:11;;;;;;;5.30;1.50;;;;;;;3.03;100.00;99878.44;5031477;28;20487;-72
2023/02/24 08:46:40;;;;;;;3.80;1.07;;;;;;;3.11;100.00;99870.63;5032014;28;20207;-72
2023/02/24 08:49:09;;;;;;;2.67;1.30;;;;;;;3.22;100.00;99868.84;5024470;28;20211;-72
2023/02/24 08:51:42;;;;;;;5.63;1.60;;;;;;;3.15;100.00;99882.63;5034055;28;20226;-71
2023/02/24 08:54:14;;;;;;;3.57;1.33;;;;;;;3.19;100.00;99869.72;5029624;28;20455;-72
2023/02/24 08:56:43;;;;;;;4.07;1.10;;;;;;;3.27;100.00;99864.47;5027596;28;20243;-72
2023/02/24 08:59:27;;;;;;;4.17;1.47;;;;;;;3.26;100.00;99857.63;5027193;28;20664;-72
2023/02/24 09:02:17;;;;;;;5.67;1.53;;;;;;;3.36;100.00;99851.53;5027162;28;20316;-71
2023/02/24 09:04:44;;;;;;;6.03;1.90;;;;;;;3.40;100.00;99847.22;5013133;28;20208;-72
2023/02/24 09:07:14;;;;;;;2.20;1.30;;;;;;;3.42;100.00;99842.91;5026574;28;20188;-72
2023/02/24 09:09:41;;;;;;;5.07;1.20;;;;;;;3.44;100.00;99845.47;5021247;28;20197;-72
2023/02/24 09:12:20;;;;;;;3.53;1.10;;;;;;;3.39;100.00;99842.91;5025917;28;20300;-72
2023/02/24 09:14:54;;;;;;;4.57;1.67;;;;;;;3.50;100.00;99837.66;5027098;28;20203;-72
2023/02/24 09:17:38;;;;;;;6.47;1.70;;;;;;;3.51;100.00;99829.91;5024807;28;20355;-72
2023/02/24 09:20:54;;;;;;;4.50;1.30;;;;;;;3.64;100.00;99822.06;5027029;28;20566;-72
2023/02/24 09:23:18;;;;;;;4.73;1.73;;;;;;;3.62;100.00;99816.91;5023848;28;20265;-71
2023/02/24 09:25:48;;;;;;;6.40;1.67;;;;;;;3.61;100.00;99812.63;5017206;28;20204;-71
2023/02/24 09:28:16;;;;;;;3.67;1.10;;;;;;;3.66;100.00;99808.28;5025902;28;20203;-72
2023/02/24 09:30:52;;;;;;;2.73;1.03;;;;;;;3.65;100.00;99811.72;5021594;28;20278;-72
2023/02/24 09:33:23;;;;;;;5.20;1.77;;;;;;;3.72;100.00;99804.78;5023618;28;20622;-72
2023/02/24 09:35:53;;;;;;;4.07;1.67;;;;;;;3.73;100.00;99793.56;5006808;28;20239;-72
2023/02/24 09:38:45;;;;;;;8.07;2.80;;;;;;;3.85;100.00;99792.59;5028214;28;20199;-72
2023/02/24 09:41:28;;;;;;;4.33;2.17;;;;;;;3.83;100.00;99782.28;5020786;28;20351;-72
2023/02/24 09:43:58;;;;;;;5.87;2.20;;;;;;;3.82;100.00;99787.47;5021337;28;20199;-72
2023/02/24 09:46:25;;;;;;;4.83;1.80;;;;;;;3.91;100.00;99775.31;5019040;28;20199;-72
2023/02/24 09:49:04;;;;;;;9.10;2.67;;;;;;;3.99;100.00;99767.47;5022150;28;20565;-72
2023/02/24 09:51:41;;;;;;;7.83;1.80;;;;;;;4.14;100.00;99762.13;5022810;28;20216;-72
2023/02/24 09:54:14;;;;;;;4.23;1.87;;;;;;;4.02;100.00;99775.19;5020201;28;20259;-72
2023/02/24 09:56:48;;;;;;;6.63;2.43;;;;;;;4.14;100.00;99761.28;5016066;28;20228;-72
2023/02/24 09:59:24;;;;;;;3.27;1.60;;;;;;;4.27;100.00;99757.63;5024966;28;20282;-71
2023/02/24 10:02:00;;;;;;;3.07;1.40;;;;;;;4.41;100.00;99756.59;5020528;28;20216;-72
2023/02/24 10:04:47;;;;;;;7.40;2.70;;;;;;;4.43;100.00;99753.09;5020979;28;20199;-72
2023/02/24 10:07:16;;;;;;;5.47;1.70;;;;;;;4.39;100.00;99755.78;5021963;28;20231;-72
2023/02/24 10:09:46;;;;;;;18.97;7.10;;;;;;;4.31;100.00;99756.75;5022959;28;20238;-71
2023/02/24 10:12:19;;;;;;;6.10;2.30;;;;;;;4.31;100.00;99748.13;5019987;28;20219;-71
2023/02/24 10:14:51;;;;;;;5.60;2.30;;;;;;;4.30;100.00;99739.53;5025934;28;20639;-72
2023/02/24 10:17:23;;;;;;;6.10;2.03;;;;;;;4.33;100.00;99728.34;5023064;28;20217;-72
2023/02/24 10:19:59;;;;;;;3.93;2.13;;;;;;;4.35;100.00;99735.16;5019154;28;20216;-72
2023/02/24 10:22:39;;;;;;;5.07;1.70;;;;;;;4.36;100.00;99728.25;5022507;28;20191;-72
2023/02/24 10:25:23;;;;;;;4.37;1.73;;;;;;;4.29;100.00;99711.16;5020435;28;20232;-72
2023/02/24 10:28:00;;;;;;;4.30;2.10;;;;;;;4.30;100.00;99713.72;5019211;28;20272;-72
2023/02/24 10:30:40;;;;;;;7.10;1.97;;;;;;;4.43;100.00;99698.06;5008893;28;20219;-72
2023/02/24 10:33:17;;;;;;;5.47;2.30;;;;;;;4.53;100.00;99697.03;5022262;28;20196;-72
2023/02/24 10:35:45;;;;;;;9.33;2.00;;;;;;;4.45;100.00;99697.16;5023030;28;20195;-72
2023/02/24 10:38:12;;;;;;;6.20;2.13;;;;;;;4.42;100.00;99691.22;5022517;28;20584;-72
2023/02/24 10:40:55;;;;;;;3.03;2.10;;;;;;;4.38;100.00;99686.94;5019722;28;20747;-72
2023/02/24 10:43:28;;;;;;;10.83;5.13;;;;;;;4.36;100.00;99679.22;5002793;28;20213;-72
2023/02/24 10:46:04;;;;;;;7.90;3.20;;;;;;;4.32;100.00;99680.16;5022546;28;20200;-72
2023/02/24 10:48:37;;;;;;;2.27;1.70;;;;;;;4.31;100.00;99676.75;5017229;28;20193;-72
2023/02/24 10:51:10;;;;;;;6.63;2.23;;;;;;;4.26;100.00;99672.53;5023062;28;20239;-72
2023/02/24 10:53:36;;;;;;;3.30;2.03;;;;;;;4.24;100.00;99666.50;5022086;28;20241;-71
2023/02/24 10:56:26;;;;;;;6.90;1.80;;;;;;;4.28;100.00;99658.72;5016280;28;20583;-72
2023/02/24 11:01:59;;;;;;;3.00;1.83;;;;;;;4.25;100.00;99643.28;5022981;28;20220;-72
2023/02/24 11:05:03;;;;;;;3.67;2.33;;;;;;;4.24;100.00;99645.88;5004214;28;20203;-72
2023/02/24 11:07:52;;;;;;;4.50;1.73;;;;;;;4.26;100.00;99644.16;5021871;28;20296;-72
2023/02/24 11:10:25;;;;;;;5.37;1.80;;;;;;;4.27;100.00;99633.78;5023268;28;20716;-72
2023/02/24 11:18:30;;;;;;;4.77;2.07;;;;;;;4.40;100.00;99624.13;5023328;28;20219;-72
2023/02/24 11:20:59;;;;;;;3.23;2.10;;;;;;;4.32;100.00;99615.66;5021064;28;20219;-72
2023/02/24 11:23:30;;;;;;;3.70;1.97;;;;;;;4.30;100.00;99613.09;5026187;28;20200;-72
2023/02/24 11:26:00;;;;;;;10.00;2.43;;;;;;;4.27;100.00;99607.13;5020326;28;20207;-72
2023/02/24 11:28:42;;;;;;;5.33;2.10;;;;;;;4.32;100.00;99602.75;5002917;28;20270;-72
2023/02/24 11:31:23;;;;;;;6.50;1.93;;;;;;;4.41;100.00;99596.56;5022558;28;20604;-72
2023/02/24 11:34:04;;;;;;;7.50;2.40;;;;;;;4.48;100.00;99580.09;5020265;28;20589;-72
2023/02/24 11:36:40;;;;;;;6.33;2.50;;;;;;;4.61;100.00;99580.72;5024712;28;20200;-72
2023/02/24 11:39:34;;;;;;;6.50;2.47;;;;;;;4.57;100.00;99582.50;5021758;28;20192;-72
2023/02/24 11:42:07;;;;;;;6.00;2.10;;;;;;;4.55;100.00;99568.78;5024964;28;20224;-72
2023/02/24 11:44:40;;;;;;;8.93;2.20;;;;;;;4.46;100.00;99577.53;5026767;28;20192;-72
2023/02/24 11:47:14;;;;;;;7.30;2.50;;;;;;;4.50;100.00;99561.13;5019045;28;20447;-72
2023/02/24 11:49:44;;;;;;;7.43;3.00;;;;;;;4.43;100.00;99558.69;5025064;28;20196;-72
2023/02/24 11:52:15;;;;;;;3.37;2.60;;;;;;;4.30;100.00;99553.72;5023367;28;20891;-72
2023/02/24 11:54:47;;;;;;;5.10;2.73;;;;;;;4.19;100.00;99550.50;5025506;28;20201;-72
2023/02/24 11:57:19;;;;;;;5.30;2.70;;;;;;;4.22;100.00;99540.13;5025530;28;20196;-72
2023/02/24 11:59:49;;;;;;;7.07;2.90;;;;;;;4.25;100.00;99540.06;5021454;28;20196;-72
2023/02/24 12:02:24;;;;;;;8.03;2.67;;;;;;;4.40;100.00;99531.22;5024797;28;20218;-72
2023/02/24 12:04:56;;;;;;;5.60;2.47;;;;;;;4.53;100.00;99522.34;5025529;28;20203;-71
2023/02/24 12:07:29;;;;;;;9.03;2.83;;;;;;;4.63;100.00;99514.44;5018966;28;20200;-72
2023/02/24 12:10:04;;;;;;;6.33;2.97;;;;;;;4.54;100.00;99518.03;5005586;28;20649;-72